sensor_id;sensor_type;location;lat;lon;timestamp;temperature;humidity
14798;DHT22;7490;63.708;20.368;2023-07-13T00:01:04;15.50;97.10
14798;DHT22;7490;63.708;20.368;2023-07-13T00:03:29;15.60;97.40
14798;DHT22;7490;63.708;20.368;2023-07-13T00:06:01;15.70;97.60
14798;DHT22;7490;63.708;20.368;2023-07-13T00:08:30;15.80;97.70
14798;DHT22;7490;63.708;20.368;2023-07-13T00:10:56;15.90;98.00
14798;DHT22;7490;63.708;20.368;2023-07-13T00:13:21;15.90;98.10
14798;DHT22;7490;63.708;20.368;2023-07-13T00:15:47;15.90;98.30
14798;DHT22;7490;63.708;20.368;2023-07-13T00:18:13;15.90;98.50
14798;DHT22;7490;63.708;20.368;2023-07-13T00:20:38;15.90;98.70
14798;DHT22;7490;63.708;20.368;2023-07-13T00:23:06;15.90;99.10
14798;DHT22;7490;63.708;20.368;2023-07-13T00:25:32;15.90;99.40
14798;DHT22;7490;63.708;20.368;2023-07-13T00:27:58;15.90;99.70
14798;DHT22;7490;63.708;20.368;2023-07-13T00:30:23;15.90;99.90
14798;DHT22;7490;63.708;20.368;2023-07-13T00:32:49;15.90;99.90
14798;DHT22;7490;63.708;20.368;2023-07-13T00:35:15;16.00;99.90
14798;DHT22;7490;63.708;20.368;2023-07-13T00:37:41;16.00;99.90
14798;DHT22;7490;63.708;20.368;2023-07-13T00:40:07;16.00;99.90
14798;DHT22;7490;63.708;20.368;2023-07-13T00:42:33;16.00;99.90
14798;DHT22;7490;63.708;20.368;2023-07-13T00:47:37;16.00;99.90
14798;DHT22;7490;63.708;20.368;2023-07-13T00:50:06;15.90;99.90
14798;DHT22;7490;63.708;20.368;2023-07-13T00:52:35;15.90;99.90
14798;DHT22;7490;63.708;20.368;2023-07-13T00:55:02;15.90;99.90
14798;DHT22;7490;63.708;20.368;2023-07-13T00:57:28;15.90;99.90
14798;DHT22;7490;63.708;20.368;2023-07-13T00:59:59;16.00;99.90
14798;DHT22;7490;63.708;20.368;2023-07-13T01:02:33;16.00;99.90
14798;DHT22;7490;63.708;20.368;2023-07-13T01:04:59;16.10;99.90
14798;DHT22;7490;63.708;20.368;2023-07-13T01:07:26;16.10;99.90
14798;DHT22;7490;63.708;20.368;2023-07-13T01:09:52;16.10;99.90
14798;DHT22;7490;63.708;20.368;2023-07-13T01:12:17;16.00;99.90
14798;DHT22;7490;63.708;20.368;2023-07-13T01:14:43;16.00;99.90
14798;DHT22;7490;63.708;20.368;2023-07-13T01:17:10;15.90;99.90
14798;DHT22;7490;63.708;20.368;2023-07-13T01:19:44;15.90;99.90
14798;DHT22;7490;63.708;20.368;2023-07-13T01:22:12;15.90;99.90
14798;DHT22;7490;63.708;20.368;2023-07-13T01:24:42;15.80;99.90
14798;DHT22;7490;63.708;20.368;2023-07-13T01:27:17;15.80;99.90
14798;DHT22;7490;63.708;20.368;2023-07-13T01:29:45;15.70;99.90
14798;DHT22;7490;63.708;20.368;2023-07-13T01:32:16;15.70;99.90
14798;DHT22;7490;63.708;20.368;2023-07-13T01:34:48;15.60;99.90
14798;DHT22;7490;63.708;20.368;2023-07-13T01:37:14;15.60;99.90
14798;DHT22;7490;63.708;20.368;2023-07-13T01:39:40;15.60;99.90
14798;DHT22;7490;63.708;20.368;2023-07-13T01:42:05;15.60;99.90
14798;DHT22;7490;63.708;20.368;2023-07-13T01:44:32;15.50;99.90
14798;DHT22;7490;63.708;20.368;2023-07-13T01:46:57;15.50;99.90
14798;DHT22;7490;63.708;20.368;2023-07-13T01:49:23;15.50;99.90
14798;DHT22;7490;63.708;20.368;2023-07-13T01:51:49;15.50;99.90
14798;DHT22;7490;63.708;20.368;2023-07-13T01:54:14;15.50;99.90
14798;DHT22;7490;63.708;20.368;2023-07-13T01:56:40;15.50;99.90
14798;DHT22;7490;63.708;20.368;2023-07-13T01:59:07;15.50;99.90
14798;DHT22;7490;63.708;20.368;2023-07-13T02:01:33;15.50;99.90
14798;DHT22;7490;63.708;20.368;2023-07-13T02:03:58;15.50;99.90
14798;DHT22;7490;63.708;20.368;2023-07-13T02:06:24;15.50;99.90
14798;DHT22;7490;63.708;20.368;2023-07-13T02:08:50;15.50;99.90
14798;DHT22;7490;63.708;20.368;2023-07-13T02:11:15;15.60;99.90
14798;DHT22;7490;63.708;20.368;2023-07-13T02:13:41;15.60;99.90
14798;DHT22;7490;63.708;20.368;2023-07-13T02:16:07;15.60;99.90
14798;DHT22;7490;63.708;20.368;2023-07-13T02:18:32;15.60;99.90
14798;DHT22;7490;63.708;20.368;2023-07-13T02:20:58;15.60;99.90
14798;DHT22;7490;63.708;20.368;2023-07-13T02:23:24;15.70;99.90
14798;DHT22;7490;63.708;20.368;2023-07-13T02:25:55;15.70;99.90
14798;DHT22;7490;63.708;20.368;2023-07-13T02:28:21;15.70;99.90
14798;DHT22;7490;63.708;20.368;2023-07-13T02:30:46;15.70;99.90
14798;DHT22;7490;63.708;20.368;2023-07-13T02:33:12;15.80;99.90
14798;DHT22;7490;63.708;20.368;2023-07-13T02:35:38;15.80;99.90
14798;DHT22;7490;63.708;20.368;2023-07-13T02:38:03;15.80;99.90
14798;DHT22;7490;63.708;20.368;2023-07-13T02:40:29;15.80;99.90
14798;DHT22;7490;63.708;20.368;2023-07-13T02:42:58;15.90;99.90
14798;DHT22;7490;63.708;20.368;2023-07-13T02:45:24;15.90;99.90
14798;DHT22;7490;63.708;20.368;2023-07-13T02:47:50;15.90;99.90
14798;DHT22;7490;63.708;20.368;2023-07-13T02:50:15;16.00;99.90
14798;DHT22;7490;63.708;20.368;2023-07-13T02:52:41;16.10;99.90
14798;DHT22;7490;63.708;20.368;2023-07-13T02:55:07;16.10;99.90
14798;DHT22;7490;63.708;20.368;2023-07-13T02:57:32;16.30;99.90
14798;DHT22;7490;63.708;20.368;2023-07-13T02:59:59;16.90;99.90
14798;DHT22;7490;63.708;20.368;2023-07-13T03:02:25;17.70;99.90
14798;DHT22;7490;63.708;20.368;2023-07-13T03:04:54;18.90;99.90
14798;DHT22;7490;63.708;20.368;2023-07-13T03:07:20;20.10;99.90
14798;DHT22;7490;63.708;20.368;2023-07-13T03:09:45;21.00;99.90
14798;DHT22;7490;63.708;20.368;2023-07-13T03:12:11;21.70;99.90
14798;DHT22;7490;63.708;20.368;2023-07-13T03:14:37;22.40;98.20
14798;DHT22;7490;63.708;20.368;2023-07-13T03:17:02;22.90;95.90
14798;DHT22;7490;63.708;20.368;2023-07-13T03:19:28;23.40;93.80
14798;DHT22;7490;63.708;20.368;2023-07-13T03:21:54;23.90;92.00
14798;DHT22;7490;63.708;20.368;2023-07-13T03:24:19;24.20;90.30
14798;DHT22;7490;63.708;20.368;2023-07-13T03:26:46;24.40;88.30
14798;DHT22;7490;63.708;20.368;2023-07-13T03:29:11;24.50;86.30
14798;DHT22;7490;63.708;20.368;2023-07-13T03:31:37;24.90;84.30
14798;DHT22;7490;63.708;20.368;2023-07-13T03:34:03;25.10;82.20
14798;DHT22;7490;63.708;20.368;2023-07-13T03:36:31;25.40;80.40
14798;DHT22;7490;63.708;20.368;2023-07-13T03:38:59;25.70;78.80
14798;DHT22;7490;63.708;20.368;2023-07-13T03:41:26;26.10;76.80
14798;DHT22;7490;63.708;20.368;2023-07-13T03:43:52;26.70;74.90
14798;DHT22;7490;63.708;20.368;2023-07-13T03:46:18;27.40;72.50
14798;DHT22;7490;63.708;20.368;2023-07-13T03:48:45;28.30;69.50
14798;DHT22;7490;63.708;20.368;2023-07-13T03:51:13;29.00;66.10
14798;DHT22;7490;63.708;20.368;2023-07-13T03:53:41;29.80;63.30
14798;DHT22;7490;63.708;20.368;2023-07-13T03:56:07;30.20;60.20
14798;DHT22;7490;63.708;20.368;2023-07-13T03:58:36;30.40;58.80
14798;DHT22;7490;63.708;20.368;2023-07-13T04:01:04;30.70;57.80
14798;DHT22;7490;63.708;20.368;2023-07-13T04:03:31;31.00;56.70
14798;DHT22;7490;63.708;20.368;2023-07-13T04:05:59;31.00;55.80
14798;DHT22;7490;63.708;20.368;2023-07-13T04:08:30;31.10;55.30
14798;DHT22;7490;63.708;20.368;2023-07-13T04:10:56;31.00;54.50
14798;DHT22;7490;63.708;20.368;2023-07-13T04:13:23;30.70;54.80
14798;DHT22;7490;63.708;20.368;2023-07-13T04:15:49;31.00;54.90
14798;DHT22;7490;63.708;20.368;2023-07-13T04:18:14;31.20;54.10
14798;DHT22;7490;63.708;20.368;2023-07-13T04:20:40;31.40;53.60
14798;DHT22;7490;63.708;20.368;2023-07-13T04:23:06;31.80;53.10
14798;DHT22;7490;63.708;20.368;2023-07-13T04:25:31;32.30;51.90
14798;DHT22;7490;63.708;20.368;2023-07-13T04:27:57;32.80;51.40
14798;DHT22;7490;63.708;20.368;2023-07-13T04:30:23;33.20;50.10
14798;DHT22;7490;63.708;20.368;2023-07-13T04:32:51;33.60;49.20
14798;DHT22;7490;63.708;20.368;2023-07-13T04:35:21;33.70;48.30
14798;DHT22;7490;63.708;20.368;2023-07-13T04:37:48;33.70;48.10
14798;DHT22;7490;63.708;20.368;2023-07-13T04:40:16;33.50;48.10
14798;DHT22;7490;63.708;20.368;2023-07-13T04:42:43;33.40;48.30
14798;DHT22;7490;63.708;20.368;2023-07-13T04:45:09;33.30;47.90
14798;DHT22;7490;63.708;20.368;2023-07-13T04:47:35;33.00;48.10
14798;DHT22;7490;63.708;20.368;2023-07-13T04:50:01;32.50;48.60
14798;DHT22;7490;63.708;20.368;2023-07-13T04:52:26;32.30;49.10
14798;DHT22;7490;63.708;20.368;2023-07-13T04:54:52;32.20;49.20
14798;DHT22;7490;63.708;20.368;2023-07-13T04:57:18;32.10;49.20
14798;DHT22;7490;63.708;20.368;2023-07-13T04:59:43;32.00;49.70
14798;DHT22;7490;63.708;20.368;2023-07-13T05:02:09;31.80;49.40
14798;DHT22;7490;63.708;20.368;2023-07-13T05:04:35;31.60;49.90
14798;DHT22;7490;63.708;20.368;2023-07-13T05:07:01;31.40;50.20
14798;DHT22;7490;63.708;20.368;2023-07-13T05:09:26;31.60;50.30
14798;DHT22;7490;63.708;20.368;2023-07-13T05:11:52;31.90;49.80
14798;DHT22;7490;63.708;20.368;2023-07-13T05:14:17;31.90;49.60
14798;DHT22;7490;63.708;20.368;2023-07-13T05:16:43;32.00;49.50
14798;DHT22;7490;63.708;20.368;2023-07-13T05:19:09;32.00;49.60
14798;DHT22;7490;63.708;20.368;2023-07-13T05:21:35;32.40;49.20
14798;DHT22;7490;63.708;20.368;2023-07-13T05:24:01;32.40;48.70
14798;DHT22;7490;63.708;20.368;2023-07-13T05:26:26;32.60;48.80
14798;DHT22;7490;63.708;20.368;2023-07-13T05:28:52;32.70;48.10
14798;DHT22;7490;63.708;20.368;2023-07-13T05:31:18;32.70;47.90
14798;DHT22;7490;63.708;20.368;2023-07-13T05:33:43;33.10;47.70
14798;DHT22;7490;63.708;20.368;2023-07-13T05:36:09;33.20;47.10
14798;DHT22;7490;63.708;20.368;2023-07-13T05:38:35;33.10;47.10
14798;DHT22;7490;63.708;20.368;2023-07-13T05:41:00;33.40;47.00
14798;DHT22;7490;63.708;20.368;2023-07-13T05:43:26;33.60;46.70
14798;DHT22;7490;63.708;20.368;2023-07-13T05:45:56;33.70;46.30
14798;DHT22;7490;63.708;20.368;2023-07-13T05:48:22;33.50;46.20
14798;DHT22;7490;63.708;20.368;2023-07-13T05:50:47;32.90;46.70
14798;DHT22;7490;63.708;20.368;2023-07-13T05:53:13;32.70;47.10
14798;DHT22;7490;63.708;20.368;2023-07-13T05:55:43;32.30;47.40
14798;DHT22;7490;63.708;20.368;2023-07-13T05:58:09;32.10;47.70
14798;DHT22;7490;63.708;20.368;2023-07-13T06:00:35;32.30;47.90
14798;DHT22;7490;63.708;20.368;2023-07-13T06:03:00;32.90;46.80
14798;DHT22;7490;63.708;20.368;2023-07-13T06:05:27;32.90;46.10
14798;DHT22;7490;63.708;20.368;2023-07-13T06:07:54;32.80;46.20
14798;DHT22;7490;63.708;20.368;2023-07-13T06:10:20;33.10;45.80
14798;DHT22;7490;63.708;20.368;2023-07-13T06:12:45;33.50;45.50
14798;DHT22;7490;63.708;20.368;2023-07-13T06:15:11;33.40;44.30
14798;DHT22;7490;63.708;20.368;2023-07-13T06:17:37;33.10;44.80
14798;DHT22;7490;63.708;20.368;2023-07-13T06:20:03;32.90;45.10
14798;DHT22;7490;63.708;20.368;2023-07-13T06:22:29;32.90;45.10
14798;DHT22;7490;63.708;20.368;2023-07-13T06:24:55;32.90;45.40
14798;DHT22;7490;63.708;20.368;2023-07-13T06:27:20;32.90;45.50
14798;DHT22;7490;63.708;20.368;2023-07-13T06:29:46;32.60;46.00
14798;DHT22;7490;63.708;20.368;2023-07-13T06:32:12;32.20;46.50
14798;DHT22;7490;63.708;20.368;2023-07-13T06:34:37;31.80;47.00
14798;DHT22;7490;63.708;20.368;2023-07-13T06:37:03;31.60;47.60
14798;DHT22;7490;63.708;20.368;2023-07-13T06:39:29;31.80;48.00
14798;DHT22;7490;63.708;20.368;2023-07-13T06:41:54;32.00;47.80
14798;DHT22;7490;63.708;20.368;2023-07-13T06:44:20;32.10;46.80
14798;DHT22;7490;63.708;20.368;2023-07-13T06:46:46;31.80;46.20
14798;DHT22;7490;63.708;20.368;2023-07-13T06:49:11;31.60;46.60
14798;DHT22;7490;63.708;20.368;2023-07-13T06:51:37;31.60;47.00
14798;DHT22;7490;63.708;20.368;2023-07-13T06:54:03;31.90;46.60
14798;DHT22;7490;63.708;20.368;2023-07-13T06:56:29;32.00;46.20
14798;DHT22;7490;63.708;20.368;2023-07-13T06:58:54;31.90;46.30
14798;DHT22;7490;63.708;20.368;2023-07-13T07:01:20;31.80;46.40
14798;DHT22;7490;63.708;20.368;2023-07-13T07:03:46;31.60;46.50
14798;DHT22;7490;63.708;20.368;2023-07-13T07:06:21;31.50;46.60
14798;DHT22;7490;63.708;20.368;2023-07-13T07:08:50;31.50;46.50
14798;DHT22;7490;63.708;20.368;2023-07-13T07:11:21;31.60;46.60
14798;DHT22;7490;63.708;20.368;2023-07-13T07:13:48;31.80;46.20
14798;DHT22;7490;63.708;20.368;2023-07-13T07:16:15;31.80;46.20
14798;DHT22;7490;63.708;20.368;2023-07-13T07:18:41;31.80;46.40
14798;DHT22;7490;63.708;20.368;2023-07-13T07:21:06;32.00;46.50
14798;DHT22;7490;63.708;20.368;2023-07-13T07:23:32;32.20;46.40
14798;DHT22;7490;63.708;20.368;2023-07-13T07:25:58;32.10;46.30
14798;DHT22;7490;63.708;20.368;2023-07-13T07:28:24;32.00;46.60
14798;DHT22;7490;63.708;20.368;2023-07-13T07:30:53;32.10;46.50
14798;DHT22;7490;63.708;20.368;2023-07-13T07:33:19;32.20;45.80
14798;DHT22;7490;63.708;20.368;2023-07-13T07:35:44;32.10;45.70
14798;DHT22;7490;63.708;20.368;2023-07-13T07:38:10;32.10;45.70
14798;DHT22;7490;63.708;20.368;2023-07-13T07:40:40;32.30;46.20
14798;DHT22;7490;63.708;20.368;2023-07-13T07:43:10;32.40;46.40
14798;DHT22;7490;63.708;20.368;2023-07-13T07:45:36;32.70;46.20
14798;DHT22;7490;63.708;20.368;2023-07-13T07:48:04;32.90;45.70
14798;DHT22;7490;63.708;20.368;2023-07-13T07:50:30;32.80;45.50
14798;DHT22;7490;63.708;20.368;2023-07-13T07:52:56;33.00;45.50
14798;DHT22;7490;63.708;20.368;2023-07-13T07:55:22;33.30;45.20
14798;DHT22;7490;63.708;20.368;2023-07-13T07:57:49;33.70;44.10
14798;DHT22;7490;63.708;20.368;2023-07-13T08:00:15;34.10;42.60
14798;DHT22;7490;63.708;20.368;2023-07-13T08:02:41;34.30;42.30
14798;DHT22;7490;63.708;20.368;2023-07-13T08:05:08;34.40;42.30
14798;DHT22;7490;63.708;20.368;2023-07-13T08:07:34;34.20;41.30
14798;DHT22;7490;63.708;20.368;2023-07-13T08:10:00;34.00;40.90
14798;DHT22;7490;63.708;20.368;2023-07-13T08:12:26;33.50;40.90
14798;DHT22;7490;63.708;20.368;2023-07-13T08:14:51;33.10;41.70
14798;DHT22;7490;63.708;20.368;2023-07-13T08:17:23;33.10;42.30
14798;DHT22;7490;63.708;20.368;2023-07-13T08:19:49;33.20;42.10
14798;DHT22;7490;63.708;20.368;2023-07-13T08:22:15;33.10;42.10
14798;DHT22;7490;63.708;20.368;2023-07-13T08:24:41;32.90;42.30
14798;DHT22;7490;63.708;20.368;2023-07-13T08:27:08;33.20;42.30
14798;DHT22;7490;63.708;20.368;2023-07-13T08:29:34;33.30;40.90
14798;DHT22;7490;63.708;20.368;2023-07-13T08:31:59;33.20;40.50
14798;DHT22;7490;63.708;20.368;2023-07-13T08:34:25;33.00;40.00
14798;DHT22;7490;63.708;20.368;2023-07-13T08:36:51;32.90;40.20
14798;DHT22;7490;63.708;20.368;2023-07-13T08:39:17;32.90;40.90
14798;DHT22;7490;63.708;20.368;2023-07-13T08:41:46;33.20;40.60
14798;DHT22;7490;63.708;20.368;2023-07-13T08:44:24;33.40;40.40
14798;DHT22;7490;63.708;20.368;2023-07-13T08:46:52;33.40;39.70
14798;DHT22;7490;63.708;20.368;2023-07-13T08:49:22;33.30;39.60
14798;DHT22;7490;63.708;20.368;2023-07-13T08:51:58;33.40;39.50
14798;DHT22;7490;63.708;20.368;2023-07-13T08:54:39;33.40;38.80
14798;DHT22;7490;63.708;20.368;2023-07-13T08:57:31;33.20;38.50
14798;DHT22;7490;63.708;20.368;2023-07-13T08:59:57;33.10;39.20
14798;DHT22;7490;63.708;20.368;2023-07-13T09:02:51;33.00;39.10
14798;DHT22;7490;63.708;20.368;2023-07-13T09:05:38;32.90;39.60
14798;DHT22;7490;63.708;20.368;2023-07-13T09:08:33;33.00;39.80
14798;DHT22;7490;63.708;20.368;2023-07-13T09:11:23;33.30;39.50
14798;DHT22;7490;63.708;20.368;2023-07-13T09:16:51;33.90;37.50
14798;DHT22;7490;63.708;20.368;2023-07-13T09:19:23;33.90;37.60
14798;DHT22;7490;63.708;20.368;2023-07-13T09:21:51;33.80;38.30
14798;DHT22;7490;63.708;20.368;2023-07-13T09:25:05;34.10;38.90
14798;DHT22;7490;63.708;20.368;2023-07-13T09:27:39;34.10;38.50
14798;DHT22;7490;63.708;20.368;2023-07-13T09:30:21;34.20;38.90
14798;DHT22;7490;63.708;20.368;2023-07-13T09:32:51;34.40;38.20
14798;DHT22;7490;63.708;20.368;2023-07-13T09:35:21;34.30;38.10
14798;DHT22;7490;63.708;20.368;2023-07-13T09:37:48;34.10;39.20
14798;DHT22;7490;63.708;20.368;2023-07-13T09:40:22;34.10;37.90
14798;DHT22;7490;63.708;20.368;2023-07-13T09:42:52;33.70;37.70
14798;DHT22;7490;63.708;20.368;2023-07-13T09:45:28;33.10;38.80
14798;DHT22;7490;63.708;20.368;2023-07-13T09:48:05;32.50;39.50
14798;DHT22;7490;63.708;20.368;2023-07-13T09:50:31;32.30;40.10
14798;DHT22;7490;63.708;20.368;2023-07-13T09:52:57;32.00;40.30
14798;DHT22;7490;63.708;20.368;2023-07-13T09:55:34;31.90;41.00
14798;DHT22;7490;63.708;20.368;2023-07-13T09:58:24;31.90;41.30
14798;DHT22;7490;63.708;20.368;2023-07-13T10:00:56;31.80;41.70
14798;DHT22;7490;63.708;20.368;2023-07-13T10:03:28;31.80;42.00
14798;DHT22;7490;63.708;20.368;2023-07-13T10:05:54;31.80;42.00
14798;DHT22;7490;63.708;20.368;2023-07-13T10:08:30;31.60;41.60
14798;DHT22;7490;63.708;20.368;2023-07-13T10:11:10;31.30;42.10
14798;DHT22;7490;63.708;20.368;2023-07-13T10:13:42;30.90;42.50
14798;DHT22;7490;63.708;20.368;2023-07-13T10:16:09;30.70;42.60
14798;DHT22;7490;63.708;20.368;2023-07-13T10:18:43;30.50;43.40
14798;DHT22;7490;63.708;20.368;2023-07-13T10:23:41;30.70;44.10
14798;DHT22;7490;63.708;20.368;2023-07-13T10:26:15;30.70;44.10
14798;DHT22;7490;63.708;20.368;2023-07-13T10:28:42;30.80;44.80
14798;DHT22;7490;63.708;20.368;2023-07-13T10:31:14;30.80;44.80
14798;DHT22;7490;63.708;20.368;2023-07-13T10:33:40;30.60;44.70
14798;DHT22;7490;63.708;20.368;2023-07-13T10:36:27;30.50;45.40
14798;DHT22;7490;63.708;20.368;2023-07-13T10:38:55;30.70;44.80
14798;DHT22;7490;63.708;20.368;2023-07-13T10:41:25;30.70;45.30
14798;DHT22;7490;63.708;20.368;2023-07-13T10:43:53;30.80;44.90
14798;DHT22;7490;63.708;20.368;2023-07-13T10:46:22;30.80;44.40
14798;DHT22;7490;63.708;20.368;2023-07-13T10:48:52;30.80;44.70
14798;DHT22;7490;63.708;20.368;2023-07-13T10:51:19;30.50;45.20
14798;DHT22;7490;63.708;20.368;2023-07-13T10:56:40;29.60;44.20
14798;DHT22;7490;63.708;20.368;2023-07-13T10:59:14;29.00;45.00
14798;DHT22;7490;63.708;20.368;2023-07-13T11:01:54;28.30;45.70
14798;DHT22;7490;63.708;20.368;2023-07-13T11:04:21;27.60;47.60
14798;DHT22;7490;63.708;20.368;2023-07-13T11:06:52;27.10;47.70
14798;DHT22;7490;63.708;20.368;2023-07-13T11:09:34;26.60;48.80
14798;DHT22;7490;63.708;20.368;2023-07-13T11:20:18;25.10;51.90
14798;DHT22;7490;63.708;20.368;2023-07-13T11:22:45;24.90;52.20
14798;DHT22;7490;63.708;20.368;2023-07-13T11:25:32;24.70;52.90
14798;DHT22;7490;63.708;20.368;2023-07-13T11:33:23;24.60;54.80
14798;DHT22;7490;63.708;20.368;2023-07-13T11:36:15;24.70;55.70
14798;DHT22;7490;63.708;20.368;2023-07-13T11:38:51;24.70;56.10
14798;DHT22;7490;63.708;20.368;2023-07-13T11:41:20;24.70;56.10
14798;DHT22;7490;63.708;20.368;2023-07-13T11:43:53;24.90;57.30
14798;DHT22;7490;63.708;20.368;2023-07-13T11:46:24;24.90;56.90
14798;DHT22;7490;63.708;20.368;2023-07-13T11:48:50;24.90;56.30
14798;DHT22;7490;63.708;20.368;2023-07-13T11:51:29;24.90;56.80
14798;DHT22;7490;63.708;20.368;2023-07-13T11:54:00;25.00;56.60
14798;DHT22;7490;63.708;20.368;2023-07-13T11:56:27;25.10;56.20
14798;DHT22;7490;63.708;20.368;2023-07-13T11:58:56;25.00;55.70
14798;DHT22;7490;63.708;20.368;2023-07-13T12:01:25;24.90;56.00
14798;DHT22;7490;63.708;20.368;2023-07-13T12:03:52;24.90;56.10
14798;DHT22;7490;63.708;20.368;2023-07-13T12:06:30;24.70;56.70
14798;DHT22;7490;63.708;20.368;2023-07-13T12:09:00;24.70;56.90
14798;DHT22;7490;63.708;20.368;2023-07-13T12:11:27;24.60;56.60
14798;DHT22;7490;63.708;20.368;2023-07-13T12:13:53;24.60;56.60
14798;DHT22;7490;63.708;20.368;2023-07-13T12:16:29;24.50;56.80
14798;DHT22;7490;63.708;20.368;2023-07-13T12:18:59;24.40;58.10
14798;DHT22;7490;63.708;20.368;2023-07-13T12:21:33;24.20;59.50
14798;DHT22;7490;63.708;20.368;2023-07-13T12:24:00;24.10;61.40
14798;DHT22;7490;63.708;20.368;2023-07-13T12:26:30;24.00;61.90
14798;DHT22;7490;63.708;20.368;2023-07-13T12:28:59;24.00;62.50
14798;DHT22;7490;63.708;20.368;2023-07-13T12:31:31;24.00;63.40
14798;DHT22;7490;63.708;20.368;2023-07-13T12:34:15;24.10;63.90
14798;DHT22;7490;63.708;20.368;2023-07-13T12:36:58;24.20;63.90
14798;DHT22;7490;63.708;20.368;2023-07-13T12:39:33;24.20;63.10
14798;DHT22;7490;63.708;20.368;2023-07-13T12:44:49;24.10;63.30
14798;DHT22;7490;63.708;20.368;2023-07-13T12:47:15;24.10;62.50
14798;DHT22;7490;63.708;20.368;2023-07-13T12:49:57;24.10;62.10
14798;DHT22;7490;63.708;20.368;2023-07-13T12:52:31;24.20;61.40
14798;DHT22;7490;63.708;20.368;2023-07-13T12:55:11;24.20;61.20
14798;DHT22;7490;63.708;20.368;2023-07-13T12:58:02;24.20;60.60
14798;DHT22;7490;63.708;20.368;2023-07-13T13:00:37;24.30;61.00
14798;DHT22;7490;63.708;20.368;2023-07-13T13:03:35;24.30;61.20
14798;DHT22;7490;63.708;20.368;2023-07-13T13:08:41;24.70;60.70
14798;DHT22;7490;63.708;20.368;2023-07-13T13:11:08;24.70;60.90
14798;DHT22;7490;63.708;20.368;2023-07-13T13:13:35;24.70;60.00
14798;DHT22;7490;63.708;20.368;2023-07-13T13:16:23;24.70;59.80
14798;DHT22;7490;63.708;20.368;2023-07-13T13:18:50;24.70;59.80
14798;DHT22;7490;63.708;20.368;2023-07-13T13:21:17;24.80;60.10
14798;DHT22;7490;63.708;20.368;2023-07-13T13:23:44;24.80;60.00
14798;DHT22;7490;63.708;20.368;2023-07-13T13:26:14;24.70;60.20
14798;DHT22;7490;63.708;20.368;2023-07-13T13:28:42;24.50;60.80
14798;DHT22;7490;63.708;20.368;2023-07-13T13:31:08;24.20;61.60
14798;DHT22;7490;63.708;20.368;2023-07-13T13:33:38;24.10;62.90
14798;DHT22;7490;63.708;20.368;2023-07-13T13:36:20;24.00;64.60
14798;DHT22;7490;63.708;20.368;2023-07-13T13:38:48;23.90;66.50
14798;DHT22;7490;63.708;20.368;2023-07-13T13:41:14;24.00;67.40
14798;DHT22;7490;63.708;20.368;2023-07-13T13:43:41;24.10;67.10
14798;DHT22;7490;63.708;20.368;2023-07-13T13:48:40;23.90;67.30
14798;DHT22;7490;63.708;20.368;2023-07-13T13:51:15;23.80;67.90
14798;DHT22;7490;63.708;20.368;2023-07-13T13:53:41;23.70;68.70
14798;DHT22;7490;63.708;20.368;2023-07-13T13:56:08;23.60;67.00
14798;DHT22;7490;63.708;20.368;2023-07-13T13:58:33;23.60;65.60
14798;DHT22;7490;63.708;20.368;2023-07-13T14:00:59;23.50;65.30
14798;DHT22;7490;63.708;20.368;2023-07-13T14:03:26;23.50;65.80
14798;DHT22;7490;63.708;20.368;2023-07-13T14:05:54;23.40;66.60
14798;DHT22;7490;63.708;20.368;2023-07-13T14:08:22;23.30;66.80
14798;DHT22;7490;63.708;20.368;2023-07-13T14:10:50;23.20;67.30
14798;DHT22;7490;63.708;20.368;2023-07-13T14:13:21;23.10;66.30
14798;DHT22;7490;63.708;20.368;2023-07-13T14:15:48;23.10;66.30
14798;DHT22;7490;63.708;20.368;2023-07-13T14:18:14;23.10;65.90
14798;DHT22;7490;63.708;20.368;2023-07-13T14:20:44;23.20;64.80
14798;DHT22;7490;63.708;20.368;2023-07-13T14:23:12;23.20;63.80
14798;DHT22;7490;63.708;20.368;2023-07-13T14:25:38;23.40;63.50
14798;DHT22;7490;63.708;20.368;2023-07-13T14:30:39;23.40;62.80
14798;DHT22;7490;63.708;20.368;2023-07-13T14:33:09;23.40;62.60
14798;DHT22;7490;63.708;20.368;2023-07-13T14:35:35;23.50;62.70
14798;DHT22;7490;63.708;20.368;2023-07-13T14:38:00;23.60;62.20
14798;DHT22;7490;63.708;20.368;2023-07-13T14:40:29;23.70;61.90
14798;DHT22;7490;63.708;20.368;2023-07-13T14:42:55;23.80;61.30
14798;DHT22;7490;63.708;20.368;2023-07-13T14:45:21;23.90;59.90
14798;DHT22;7490;63.708;20.368;2023-07-13T14:47:47;23.90;59.30
14798;DHT22;7490;63.708;20.368;2023-07-13T14:50:14;24.00;59.80
14798;DHT22;7490;63.708;20.368;2023-07-13T14:52:41;24.00;59.20
14798;DHT22;7490;63.708;20.368;2023-07-13T14:55:15;24.00;58.60
14798;DHT22;7490;63.708;20.368;2023-07-13T14:57:41;24.00;58.10
14798;DHT22;7490;63.708;20.368;2023-07-13T15:00:21;23.90;58.50
14798;DHT22;7490;63.708;20.368;2023-07-13T15:02:50;24.00;58.50
14798;DHT22;7490;63.708;20.368;2023-07-13T15:05:25;24.00;57.90
14798;DHT22;7490;63.708;20.368;2023-07-13T15:07:53;23.90;57.40
14798;DHT22;7490;63.708;20.368;2023-07-13T15:12:47;23.70;58.10
14798;DHT22;7490;63.708;20.368;2023-07-13T15:15:13;23.40;58.80
14798;DHT22;7490;63.708;20.368;2023-07-13T15:17:42;23.30;59.40
14798;DHT22;7490;63.708;20.368;2023-07-13T15:20:27;23.20;59.90
14798;DHT22;7490;63.708;20.368;2023-07-13T15:22:54;23.20;60.40
14798;DHT22;7490;63.708;20.368;2023-07-13T15:25:24;23.10;60.90
14798;DHT22;7490;63.708;20.368;2023-07-13T15:27:51;23.00;61.70
14798;DHT22;7490;63.708;20.368;2023-07-13T15:30:17;23.00;62.50
14798;DHT22;7490;63.708;20.368;2023-07-13T15:32:43;23.00;63.10
14798;DHT22;7490;63.708;20.368;2023-07-13T15:35:21;23.00;63.70
14798;DHT22;7490;63.708;20.368;2023-07-13T15:37:48;23.10;64.40
14798;DHT22;7490;63.708;20.368;2023-07-13T15:40:16;23.20;64.40
14798;DHT22;7490;63.708;20.368;2023-07-13T15:42:42;23.20;64.40
14798;DHT22;7490;63.708;20.368;2023-07-13T15:45:35;23.20;64.80
14798;DHT22;7490;63.708;20.368;2023-07-13T15:48:00;23.10;65.30
14798;DHT22;7490;63.708;20.368;2023-07-13T15:50:44;23.00;66.90
14798;DHT22;7490;63.708;20.368;2023-07-13T15:53:10;23.00;67.10
14798;DHT22;7490;63.708;20.368;2023-07-13T15:55:39;22.90;67.40
14798;DHT22;7490;63.708;20.368;2023-07-13T15:58:10;22.80;68.00
14798;DHT22;7490;63.708;20.368;2023-07-13T16:00:36;22.70;68.40
14798;DHT22;7490;63.708;20.368;2023-07-13T16:03:02;22.50;68.70
14798;DHT22;7490;63.708;20.368;2023-07-13T16:05:28;22.40;69.40
14798;DHT22;7490;63.708;20.368;2023-07-13T16:07:54;22.30;69.60
14798;DHT22;7490;63.708;20.368;2023-07-13T16:10:47;22.30;70.20
14798;DHT22;7490;63.708;20.368;2023-07-13T16:13:16;22.30;70.80
14798;DHT22;7490;63.708;20.368;2023-07-13T16:15:44;22.20;71.20
14798;DHT22;7490;63.708;20.368;2023-07-13T16:18:11;22.20;71.20